Time;durP1;ratioP1;P1;durP2;ratioP2;P2;SDS_P1;SDS_P2;PMS_P1;PMS_P2;Temp;Humidity;BMP_temperature;BMP_pressure;BME280_temperature;BME280_humidity;BME280_pressure;Samples;Min_cycle;Max_cycle;Signal;HPM_P1;HPM_P2
2023/08/01 00:00:36;;;;;;;4.55;1.95;;;;;;;17.58;100.00;99395.44;4968133;28;20248;-84
2023/08/01 00:03:03;;;;;;;15.05;3.97;;;;;;;17.60;100.00;99390.91;4985918;28;20267;-85
2023/08/01 00:05:30;;;;;;;5.53;2.28;;;;;;;17.55;100.00;99379.50;4972962;28;20236;-84
2023/08/01 00:07:57;;;;;;;4.53;2.00;;;;;;;17.56;100.00;99391.94;4973605;28;20236;-87
2023/08/01 00:10:24;;;;;;;7.05;2.75;;;;;;;17.56;100.00;99375.03;4970321;28;20308;-86
2023/08/01 00:12:51;;;;;;;4.95;2.10;;;;;;;17.52;100.00;99357.34;4969687;28;20228;-86
2023/08/01 00:15:18;;;;;;;32.25;7.95;;;;;;;17.48;100.00;99345.03;4971717;28;20279;-87
2023/08/01 00:17:44;;;;;;;5.43;2.20;;;;;;;17.47;100.00;99338.81;4979319;28;20734;-87
2023/08/01 00:20:11;;;;;;;28.17;7.20;;;;;;;17.46;100.00;99347.75;4968903;28;20316;-84
2023/08/01 00:22:38;;;;;;;5.80;2.55;;;;;;;17.49;100.00;99354.78;4982166;28;20232;-87
2023/08/01 00:25:06;;;;;;;31.70;7.95;;;;;;;17.49;100.00;99363.69;4971718;28;20232;-88
2023/08/01 00:27:33;;;;;;;5.22;2.10;;;;;;;17.45;100.00;99367.41;4979795;28;20289;-87
2023/08/01 00:30:07;;;;;;;28.02;6.88;;;;;;;17.47;100.00;99362.88;4961116;28;20240;-87
2023/08/01 00:32:35;;;;;;;5.10;2.25;;;;;;;17.42;100.00;99372.84;4961916;28;20237;-87
2023/08/01 00:35:02;;;;;;;5.32;2.28;;;;;;;17.51;100.00;99385.00;4957299;28;20225;-88
2023/08/01 00:37:29;;;;;;;6.80;2.67;;;;;;;17.47;100.00;99380.69;4953062;28;20324;-87
2023/08/01 00:39:56;;;;;;;5.72;2.35;;;;;;;17.46;100.00;99376.28;4977413;28;20759;-87
2023/08/01 00:42:23;;;;;;;6.80;2.53;;;;;;;17.46;100.00;99378.97;4958463;28;20248;-88
2023/08/01 00:44:51;;;;;;;5.05;2.05;;;;;;;17.44;100.00;99378.13;4968522;28;20238;-88
2023/08/01 00:47:18;;;;;;;69.55;17.13;;;;;;;17.45;100.00;99375.41;4974032;28;20745;-86
2023/08/01 00:49:45;;;;;;;5.43;2.17;;;;;;;17.44;100.00;99354.09;4937996;28;20247;-87
2023/08/01 00:52:13;;;;;;;38.58;9.50;;;;;;;17.44;100.00;99357.63;4970622;28;20248;-84
2023/08/01 00:54:40;;;;;;;5.97;2.60;;;;;;;17.43;100.00;99358.56;4967575;28;20237;-86
2023/08/01 00:57:07;;;;;;;47.72;13.13;;;;;;;17.46;100.00;99365.59;4966097;28;20228;-87
2023/08/01 00:59:35;;;;;;;5.65;2.03;;;;;;;17.45;100.00;99367.41;4979556;28;20228;-87
2023/08/01 01:02:02;;;;;;;5.68;2.50;;;;;;;17.41;100.00;99357.75;4958947;28;20309;-85
2023/08/01 01:04:29;;;;;;;6.50;2.85;;;;;;;17.47;100.00;99362.00;4962709;28;20336;-85
2023/08/01 01:07:03;;;;;;;5.53;2.33;;;;;;;17.49;100.00;99361.00;4972095;28;20227;-84
2023/08/01 01:09:33;;;;;;;6.82;2.90;;;;;;;17.51;100.00;99361.81;4965253;28;20231;-84
2023/08/01 01:12:00;;;;;;;4.20;1.85;;;;;;;17.49;100.00;99357.47;4957361;28;20245;-84
2023/08/01 01:14:28;;;;;;;8.75;3.75;;;;;;;17.48;100.00;99351.25;4973876;28;20240;-86
2023/08/01 01:16:55;;;;;;;6.07;2.33;;;;;;;17.47;100.00;99370.00;4977840;28;20236;-82
2023/08/01 01:19:22;;;;;;;5.40;2.33;;;;;;;17.46;100.00;99374.50;4968737;28;20288;-85
2023/08/01 01:21:49;;;;;;;3.95;1.73;;;;;;;17.46;100.00;99400.34;4970633;28;20240;-84
2023/08/01 01:24:35;;;;;;;4.93;2.05;;;;;;;17.46;100.00;99406.56;4960490;28;20240;-83
2023/08/01 01:27:03;;;;;;;5.65;2.22;;;;;;;17.44;100.00;99397.72;4974381;28;20707;-85
2023/08/01 01:29:32;;;;;;;6.05;2.60;;;;;;;17.45;100.00;99407.47;4970465;28;20228;-84
2023/08/01 01:32:00;;;;;;;4.72;2.17;;;;;;;17.46;100.00;99406.56;4966052;28;20248;-85
2023/08/01 01:34:28;;;;;;;5.05;2.22;;;;;;;17.45;100.00;99409.28;4961526;28;20255;-85
2023/08/01 01:36:54;;;;;;;6.95;2.88;;;;;;;17.43;100.00;99408.47;4982423;28;20242;-84
2023/08/01 01:39:21;;;;;;;8.70;2.85;;;;;;;17.41;100.00;99408.53;4973718;28;20613;-83
2023/08/01 01:41:48;;;;;;;4.18;1.85;;;;;;;17.44;100.00;99424.44;4977853;28;20232;-86
2023/08/01 01:44:15;;;;;;;30.20;7.20;;;;;;;17.42;100.00;99428.09;4964186;28;20233;-85
2023/08/01 01:46:41;;;;;;;4.50;1.92;;;;;;;17.47;100.00;99434.16;4966118;28;20229;-84
2023/08/01 01:49:09;;;;;;;31.48;7.50;;;;;;;17.49;100.00;99429.63;4957652;28;20253;-83
2023/08/01 01:51:35;;;;;;;5.20;2.08;;;;;;;17.52;100.00;99424.19;4969935;28;20228;-84
2023/08/01 01:54:02;;;;;;;9.63;3.08;;;;;;;17.63;100.00;99446.06;4972010;28;20312;-86
2023/08/01 01:56:29;;;;;;;5.15;2.20;;;;;;;17.73;100.00;99468.03;4972529;28;20233;-86
2023/08/01 01:58:56;;;;;;;5.45;2.63;;;;;;;17.84;100.00;99457.81;4974015;28;20228;-87
2023/08/01 02:01:23;;;;;;;8.20;2.78;;;;;;;17.83;100.00;99456.94;4971559;28;20232;-88
2023/08/01 02:03:50;;;;;;;4.25;1.88;;;;;;;17.85;100.00;99438.16;4971022;28;20228;-87
2023/08/01 02:06:16;;;;;;;32.65;7.82;;;;;;;17.85;100.00;99439.03;4963345;28;20225;-88
2023/08/01 02:08:43;;;;;;;5.85;2.35;;;;;;;17.88;100.00;99443.41;4978231;28;20229;-87
2023/08/01 02:11:10;;;;;;;35.20;8.32;;;;;;;17.93;100.00;99436.09;4959587;28;20236;-88
2023/08/01 02:13:36;;;;;;;4.53;2.22;;;;;;;17.93;100.00;99438.75;4967545;28;20259;-88
2023/08/01 02:16:03;;;;;;;16.38;4.55;;;;;;;18.00;100.00;99432.25;4970307;28;20232;-88
2023/08/01 02:18:30;;;;;;;6.53;2.58;;;;;;;18.06;100.00;99420.44;4969656;28;20236;-88
2023/08/01 02:20:57;;;;;;;4.57;1.92;;;;;;;18.04;100.00;99412.50;4969656;28;20243;-89
2023/08/01 02:23:24;;;;;;;5.40;2.30;;;;;;;18.06;100.00;99418.66;4952595;28;20242;-87
2023/08/01 02:25:51;;;;;;;5.22;2.25;;;;;;;18.12;100.00;99409.53;4969598;28;20248;-87
2023/08/01 02:28:18;;;;;;;33.20;8.23;;;;;;;18.04;100.00;99392.88;4957174;28;20235;-87
2023/08/01 02:30:45;;;;;;;4.88;2.03;;;;;;;18.02;100.00;99390.28;4968086;28;20256;-87
2023/08/01 02:33:11;;;;;;;48.88;12.93;;;;;;;18.01;100.00;99388.53;4958998;28;20236;-87
2023/08/01 02:35:41;;;;;;;5.70;2.28;;;;;;;17.96;100.00;99381.59;4962517;28;20251;-88
2023/08/01 02:38:08;;;;;;;72.45;18.98;;;;;;;17.82;100.00;99363.41;4953813;28;20233;-86
2023/08/01 02:40:35;;;;;;;3.90;1.67;;;;;;;17.75;100.00;99359.22;4980238;28;20260;-86
2023/08/01 02:43:02;;;;;;;7.57;3.05;;;;;;;17.67;100.00;99346.13;4950249;28;20234;-88
2023/08/01 02:45:29;;;;;;;7.13;2.95;;;;;;;17.67;100.00;99340.78;4983471;28;20328;-86
2023/08/01 02:47:55;;;;;;;4.35;1.80;;;;;;;17.62;100.00;99345.41;4980867;28;20292;-85
2023/08/01 02:50:24;;;;;;;7.55;3.10;;;;;;;17.63;100.00;99343.59;4963204;28;20227;-84
2023/08/01 02:52:50;;;;;;;4.72;1.95;;;;;;;17.62;100.00;99349.88;4985515;28;20232;-86
2023/08/01 02:55:17;;;;;;;27.02;7.28;;;;;;;17.58;100.00;99362.47;4958621;28;20248;-85
2023/08/01 02:57:44;;;;;;;6.28;2.30;;;;;;;17.62;100.00;99371.25;4977813;28;20225;-85
2023/08/01 03:00:13;;;;;;;33.00;7.97;;;;;;;17.58;100.00;99374.03;4969942;28;20225;-87
2023/08/01 03:02:40;;;;;;;5.70;2.40;;;;;;;17.61;100.00;99378.41;4972904;28;20238;-87
2023/08/01 03:05:08;;;;;;;36.55;8.60;;;;;;;17.58;100.00;99384.72;4966414;28;20236;-85
2023/08/01 03:07:35;;;;;;;3.58;1.60;;;;;;;17.57;100.00;99382.13;4974372;28;20225;-86
2023/08/01 03:10:02;;;;;;;10.88;3.22;;;;;;;17.59;100.00;99393.63;4962948;28;20233;-86
2023/08/01 03:12:29;;;;;;;7.72;3.15;;;;;;;17.56;100.00;99401.75;4976647;28;20247;-86
2023/08/01 03:14:56;;;;;;;4.63;1.90;;;;;;;17.55;100.00;99405.34;4978659;28;20224;-87
2023/08/01 03:17:23;;;;;;;10.05;3.25;;;;;;;17.56;100.00;99399.09;4971107;28;20240;-86
2023/08/01 03:19:50;;;;;;;6.13;2.22;;;;;;;17.57;100.00;99414.19;4976021;28;20312;-86
2023/08/01 03:22:17;;;;;;;46.40;11.73;;;;;;;17.55;100.00;99410.72;4965140;28;20233;-87
2023/08/01 03:24:43;;;;;;;6.50;2.47;;;;;;;17.51;100.00;99412.63;4963036;28;20252;-88
2023/08/01 03:27:10;;;;;;;21.55;5.75;;;;;;;17.55;100.00;99413.38;4954572;28;20335;-88
2023/08/01 03:29:37;;;;;;;4.35;1.77;;;;;;;17.60;100.00;99414.09;4970111;28;20226;-88
2023/08/01 03:32:04;;;;;;;15.90;4.38;;;;;;;17.54;100.00;99412.50;4964756;28;20228;-89
2023/08/01 03:34:31;;;;;;;8.85;3.28;;;;;;;17.54;100.00;99407.16;4981264;28;20315;-88
2023/08/01 03:36:58;;;;;;;5.75;2.22;;;;;;;17.57;100.00;99427.56;4982757;28;20256;-87
2023/08/01 03:39:25;;;;;;;8.60;3.35;;;;;;;17.57;100.00;99423.09;4960539;28;20237;-88
2023/08/01 03:41:51;;;;;;;5.25;2.08;;;;;;;17.58;100.00;99421.28;4975428;28;20232;-88
2023/08/01 03:44:18;;;;;;;22.70;5.68;;;;;;;17.64;100.00;99418.41;4975675;28;20316;-88
2023/08/01 03:46:47;;;;;;;6.47;2.63;;;;;;;17.71;100.00;99422.63;4969024;28;20224;-92
2023/08/01 03:49:14;;;;;;;39.53;9.07;;;;;;;17.84;100.00;99415.91;4963494;28;20224;-89
2023/08/01 03:51:41;;;;;;;5.43;2.00;;;;;;;17.82;100.00;99408.88;4970079;28;20233;-88
2023/08/01 03:54:07;;;;;;;33.63;7.35;;;;;;;17.80;100.00;99397.34;4975877;28;20236;-86
2023/08/01 03:56:42;;;;;;;5.70;2.00;;;;;;;17.73;100.00;99379.78;4975276;28;20238;-87
2023/08/01 03:59:15;;;;;;;30.10;7.45;;;;;;;17.74;100.00;99374.38;4971415;28;20228;-86
2023/08/01 04:01:42;;;;;;;7.30;2.50;;;;;;;17.73;100.00;99367.28;4952608;28;20239;-86
2023/08/01 04:04:09;;;;;;;34.38;8.75;;;;;;;17.69;100.00;99360.31;4975266;28;20238;-86
2023/08/01 04:06:37;;;;;;;5.13;2.00;;;;;;;17.67;100.00;99355.97;4977892;28;20225;-87
2023/08/01 04:09:06;;;;;;;23.85;5.55;;;;;;;17.64;100.00;99350.69;4974496;28;20232;-85
2023/08/01 04:11:33;;;;;;;5.63;2.03;;;;;;;17.55;100.00;99351.91;4972442;28;20233;-86
2023/08/01 04:14:00;;;;;;;5.68;2.15;;;;;;;17.54;100.00;99363.53;4982342;28;20287;-92
2023/08/01 04:16:27;;;;;;;6.35;2.55;;;;;;;17.55;100.00;99354.56;4964715;28;20247;-92
2023/08/01 04:18:56;;;;;;;6.38;2.35;;;;;;;17.52;100.00;99355.56;4957870;28;20701;-90
2023/08/01 04:21:23;;;;;;;11.35;3.55;;;;;;;17.51;100.00;99359.16;4960896;28;20679;-89
2023/08/01 04:23:50;;;;;;;5.47;2.08;;;;;;;17.51;100.00;99372.53;4972139;28;20233;-89
2023/08/01 04:26:17;;;;;;;46.75;10.00;;;;;;;17.50;100.00;99360.09;4973468;28;20227;-89
2023/08/01 04:28:46;;;;;;;6.65;2.53;;;;;;;17.52;100.00;99379.63;4981500;28;20236;-90
2023/08/01 04:31:13;;;;;;;39.78;8.77;;;;;;;17.47;100.00;99376.22;4959540;28;20226;-89
2023/08/01 04:33:40;;;;;;;5.32;2.05;;;;;;;17.47;100.00;99383.38;4962851;28;20237;-88
2023/08/01 04:36:07;;;;;;;57.83;14.07;;;;;;;17.48;100.00;99411.84;4950568;28;20237;-88
2023/08/01 04:38:34;;;;;;;6.35;2.33;;;;;;;17.46;100.00;99424.41;4965141;28;20251;-88
2023/08/01 04:41:02;;;;;;;7.85;2.60;;;;;;;17.43;100.00;99428.06;4960246;28;20231;-90
2023/08/01 04:43:29;;;;;;;5.93;2.08;;;;;;;17.41;100.00;99411.19;4969387;28;20233;-87
2023/08/01 04:45:56;;;;;;;8.98;3.13;;;;;;;17.39;100.00;99399.69;4968250;28;20290;-84
2023/08/01 04:48:23;;;;;;;12.73;3.97;;;;;;;17.42;100.00;99393.34;4969836;28;20296;-86
2023/08/01 04:50:50;;;;;;;8.40;2.50;;;;;;;17.39;100.00;99382.78;4973613;28;20255;-87
2023/08/01 04:53:17;;;;;;;42.63;10.98;;;;;;;17.33;100.00;99372.31;4964660;28;20229;-85
2023/08/01 04:55:44;;;;;;;9.93;3.17;;;;;;;17.33;100.00;99393.69;4971163;28;20616;-85
2023/08/01 04:58:12;;;;;;;37.47;8.32;;;;;;;17.26;100.00;99404.59;4963988;28;20233;-83
2023/08/01 05:00:41;;;;;;;10.30;3.75;;;;;;;17.22;100.00;99389.59;4975803;28;20311;-83
2023/08/01 05:03:08;;;;;;;47.80;12.40;;;;;;;17.12;100.00;99385.47;4962245;28;20228;-83
2023/08/01 05:05:35;;;;;;;8.07;2.65;;;;;;;17.08;100.00;99370.50;4978978;28;20659;-83
2023/08/01 05:08:01;;;;;;;10.50;3.22;;;;;;;17.11;100.00;99381.06;4974743;28;20224;-94
2023/08/01 05:10:29;;;;;;;12.02;4.13;;;;;;;17.07;100.00;99365.19;4960902;28;20231;-83
2023/08/01 05:12:55;;;;;;;7.20;2.72;;;;;;;17.01;100.00;99358.28;4963886;28;20239;-84
2023/08/01 05:15:22;;;;;;;11.18;4.13;;;;;;;17.04;100.00;99362.63;4972425;28;20240;-83
2023/08/01 05:17:49;;;;;;;5.38;1.88;;;;;;;16.96;100.00;99362.91;4974349;28;20236;-86
2023/08/01 05:20:16;;;;;;;44.42;9.38;;;;;;;16.97;100.00;99350.41;4973841;28;20236;-90
2023/08/01 05:22:43;;;;;;;10.55;3.60;;;;;;;16.94;100.00;99352.25;4967110;28;20232;-85
2023/08/01 05:25:10;;;;;;;45.83;9.90;;;;;;;16.90;100.00;99347.06;4982069;28;20377;-84
2023/08/01 05:27:37;;;;;;;5.72;1.98;;;;;;;16.90;100.00;99366.66;4968617;28;20235;-85
2023/08/01 05:30:04;;;;;;;22.15;5.75;;;;;;;16.84;100.00;99369.50;4961638;28;20280;-84
2023/08/01 05:32:31;;;;;;;9.32;2.80;;;;;;;16.88;100.00;99381.81;4975276;28;20244;-84
2023/08/01 05:34:57;;;;;;;6.60;2.03;;;;;;;16.89;100.00;99372.88;4975314;28;20247;-85
2023/08/01 05:37:24;;;;;;;6.63;2.10;;;;;;;16.85;100.00;99381.03;4961742;28;20384;-85
2023/08/01 05:39:51;;;;;;;9.05;2.72;;;;;;;16.85;100.00;99381.03;4969915;28;20238;-83
2023/08/01 05:42:18;;;;;;;49.95;10.43;;;;;;;16.83;100.00;99388.22;4965642;28;20260;-82
2023/08/01 05:44:45;;;;;;;7.97;2.65;;;;;;;16.83;100.00;99383.75;4967038;28;20229;-83
2023/08/01 05:47:12;;;;;;;41.83;8.50;;;;;;;16.79;100.00;99400.81;4979880;28;20228;-82
2023/08/01 05:49:41;;;;;;;8.02;2.70;;;;;;;16.77;100.00;99400.00;4970448;28;20247;-83
2023/08/01 05:52:07;;;;;;;31.35;6.97;;;;;;;16.80;100.00;99383.00;4979563;28;20300;-84
2023/08/01 05:54:35;;;;;;;6.25;2.40;;;;;;;16.77;100.00;99383.09;4980544;28;20237;-87
2023/08/01 05:57:02;;;;;;;5.55;2.22;;;;;;;16.73;100.00;99382.31;4968791;28;20240;-86
2023/08/01 05:59:28;;;;;;;6.95;2.75;;;;;;;16.68;100.00;99367.38;4954432;28;20235;-83
2023/08/01 06:01:55;;;;;;;5.32;2.10;;;;;;;16.66;100.00;99367.44;4984446;28;20224;-82
2023/08/01 06:04:22;;;;;;;10.10;3.25;;;;;;;16.67;100.00;99379.84;4971411;28;20247;-82
2023/08/01 06:06:49;;;;;;;4.65;1.95;;;;;;;16.60;100.00;99383.59;4972127;28;20228;-85
2023/08/01 06:09:16;;;;;;;26.67;7.20;;;;;;;16.71;100.00;99391.31;4969604;28;20267;-88
2023/08/01 06:11:42;;;;;;;9.05;3.55;;;;;;;16.75;100.00;99401.84;4979815;28;20228;-86
2023/08/01 06:14:10;;;;;;;26.05;5.85;;;;;;;16.73;100.00;99400.13;4960421;28;20953;-82
2023/08/01 06:16:36;;;;;;;6.50;2.50;;;;;;;16.75;100.00;99412.50;4980068;28;20236;-82
2023/08/01 06:19:04;;;;;;;8.55;3.08;;;;;;;16.75;100.00;99411.63;4966628;28;20278;-83
2023/08/01 06:21:30;;;;;;;11.55;4.75;;;;;;;16.74;100.00;99410.75;4961180;28;20244;-79
2023/08/01 06:23:57;;;;;;;12.57;4.93;;;;;;;16.81;100.00;99422.13;4973904;28;20240;-80
2023/08/01 06:26:24;;;;;;;10.73;4.20;;;;;;;16.79;100.00;99419.50;4955284;28;20244;-82
2023/08/01 06:28:53;;;;;;;7.05;2.75;;;;;;;16.83;100.00;99420.28;4972920;28;20235;-82
2023/08/01 06:31:20;;;;;;;42.63;9.38;;;;;;;16.81;100.00;99409.63;4956227;28;20241;-82
2023/08/01 06:33:47;;;;;;;6.90;2.65;;;;;;;16.73;100.00;99411.69;4952338;28;20229;-81
2023/08/01 06:36:16;;;;;;;41.22;9.48;;;;;;;16.76;100.00;99416.06;4962835;28;20236;-82
2023/08/01 06:38:43;;;;;;;7.65;2.78;;;;;;;16.76;100.00;99421.41;4981906;28;20270;-79
2023/08/01 06:41:10;;;;;;;7.07;2.58;;;;;;;16.75;100.00;99427.66;4966287;28;20232;-80
2023/08/01 06:43:38;;;;;;;8.20;2.80;;;;;;;16.76;100.00;99434.75;4967536;28;20233;-80
2023/08/01 06:46:05;;;;;;;30.92;7.70;;;;;;;16.74;100.00;99440.13;4953360;28;20221;-81
2023/08/01 06:48:34;;;;;;;13.90;4.68;;;;;;;16.78;100.00;99432.91;4961348;28;20283;-81
2023/08/01 06:51:02;;;;;;;11.02;3.58;;;;;;;16.80;100.00;99421.25;4941851;28;20236;-82
2023/08/01 06:53:29;;;;;;;8.77;2.95;;;;;;;16.76;100.00;99403.56;4959711;28;20232;-80
2023/08/01 06:55:56;;;;;;;13.23;3.97;;;;;;;16.78;100.00;99414.22;4972728;28;20229;-82
2023/08/01 06:58:22;;;;;;;13.55;4.10;;;;;;;16.85;100.00;99437.13;4976863;28;20257;-82
2023/08/01 07:00:49;;;;;;;14.90;3.70;;;;;;;16.84;100.00;99440.72;4975433;28;20235;-82
2023/08/01 07:03:16;;;;;;;49.70;10.10;;;;;;;16.93;100.00;99440.44;4974445;28;20240;-80
2023/08/01 07:05:43;;;;;;;11.23;3.50;;;;;;;16.91;100.00;99432.47;4997129;28;20225;-82
2023/08/01 07:08:10;;;;;;;39.47;8.40;;;;;;;17.00;100.00;99446.47;4958594;28;20236;-83
2023/08/01 07:10:37;;;;;;;8.07;2.83;;;;;;;17.05;100.00;99441.84;4964517;28;20730;-83
2023/08/01 07:13:04;;;;;;;23.90;6.13;;;;;;;17.09;100.00;99444.34;4977407;28;20228;-82
2023/08/01 07:15:32;;;;;;;12.25;4.38;;;;;;;17.15;100.00;99451.28;4978082;28;20303;-80
2023/08/01 07:17:59;;;;;;;8.05;3.03;;;;;;;17.23;100.00;99473.28;4971438;28;20232;-84
2023/08/01 07:20:26;;;;;;;10.85;4.07;;;;;;;17.31;100.00;99489.94;4962929;28;20292;-84
2023/08/01 07:22:53;;;;;;;8.13;2.88;;;;;;;17.35;100.00;99498.72;4961929;28;20233;-86
2023/08/01 07:25:20;;;;;;;61.88;12.63;;;;;;;17.42;100.00;99510.94;4970318;28;20240;-85
2023/08/01 07:27:47;;;;;;;11.98;4.07;;;;;;;17.47;100.00;99519.69;4973297;28;20221;-84
2023/08/01 07:30:14;;;;;;;33.72;9.20;;;;;;;17.51;100.00;99521.34;4964853;28;20252;-84
2023/08/01 07:32:43;;;;;;;11.15;3.40;;;;;;;17.52;100.00;99536.44;4968957;28;20267;-83
2023/08/01 07:35:10;;;;;;;29.52;7.47;;;;;;;17.64;100.00;99548.53;4975728;28;20228;-85
2023/08/01 07:37:37;;;;;;;6.63;2.22;;;;;;;17.65;100.00;99558.28;4982706;28;20229;-84
2023/08/01 07:40:08;;;;;;;18.63;5.35;;;;;;;17.68;100.00;99563.56;4968489;28;20243;-83
2023/08/01 07:42:35;;;;;;;8.30;2.97;;;;;;;17.68;100.00;99563.56;4983953;28;20259;-83
2023/08/01 07:45:02;;;;;;;5.15;1.90;;;;;;;17.71;100.00;99568.81;4971499;28;20252;-86
2023/08/01 07:47:29;;;;;;;8.90;3.20;;;;;;;17.72;100.00;99567.91;4981399;28;20236;-84
2023/08/01 07:49:56;;;;;;;7.13;2.63;;;;;;;17.72;100.00;99573.25;4974061;28;20260;-85
2023/08/01 07:52:23;;;;;;;10.90;3.35;;;;;;;17.72;100.00;99584.81;4961110;28;20240;-85
2023/08/01 07:54:52;;;;;;;7.65;2.75;;;;;;;17.69;100.00;99579.56;4978663;28;20282;-83
2023/08/01 07:57:19;;;;;;;39.22;9.00;;;;;;;18.02;100.00;99612.31;4967760;28;20236;-85
2023/08/01 07:59:46;;;;;;;6.63;2.55;;;;;;;18.13;100.00;99610.16;4969356;28;20233;-84
2023/08/01 08:02:12;;;;;;;24.77;5.68;;;;;;;18.29;100.00;99621.22;4972215;28;20232;-83
2023/08/01 08:04:39;;;;;;;6.43;2.42;;;;;;;18.48;100.00;99635.69;4967564;28;20229;-84
2023/08/01 08:07:06;;;;;;;36.13;8.65;;;;;;;18.80;100.00;99649.75;4956333;28;20245;-84
2023/08/01 08:09:33;;;;;;;9.50;3.45;;;;;;;18.80;100.00;99637.22;4973851;28;20244;-83
2023/08/01 08:12:00;;;;;;;8.63;3.42;;;;;;;18.85;100.00;99637.94;4969947;28;20233;-84
2023/08/01 08:14:27;;;;;;;10.60;3.80;;;;;;;18.96;100.00;99633.97;4974501;28;20235;-88
2023/08/01 08:16:54;;;;;;;6.88;2.53;;;;;;;19.02;100.00;99631.94;4975240;28;20247;-84
2023/08/01 08:19:23;;;;;;;18.85;4.90;;;;;;;18.99;100.00;99625.81;4960102;28;20253;-85
2023/08/01 08:21:50;;;;;;;5.32;2.10;;;;;;;19.05;100.00;99621.09;4970102;28;20316;-84
2023/08/01 08:24:17;;;;;;;45.55;11.57;;;;;;;19.11;100.00;99625.34;4976017;28;20334;-85
2023/08/01 08:26:45;;;;;;;7.28;2.85;;;;;;;19.02;100.00;99614.97;4962679;28;20321;-84
2023/08/01 08:29:12;;;;;;;22.88;6.22;;;;;;;18.85;100.00;99587.03;4954894;28;20240;-84
2023/08/01 08:31:39;;;;;;;7.25;2.80;;;;;;;18.88;100.00;99577.13;4976543;28;20687;-85
2023/08/01 08:34:06;;;;;;;22.35;6.43;;;;;;;18.89;100.00;99560.13;4969213;28;20239;-84
2023/08/01 08:36:33;;;;;;;11.00;4.10;;;;;;;18.97;100.00;99552.66;4972136;28;20232;-85
2023/08/01 08:39:00;;;;;;;5.35;2.22;;;;;;;18.76;100.00;99506.16;4982379;28;20262;-86
2023/08/01 08:41:30;;;;;;;7.63;3.05;;;;;;;18.63;100.00;99472.75;4975948;28;20278;-83
2023/08/01 08:44:00;;;;;;;8.90;3.17;;;;;;;18.71;100.00;99443.88;4977076;28;20236;-80
2023/08/01 08:46:29;;;;;;;9.35;3.22;;;;;;;18.80;100.00;99422.94;4956613;28;20240;-81
2023/08/01 08:48:57;;;;;;;8.77;3.42;;;;;;;18.77;100.00;99390.06;4971311;28;20307;-82
2023/08/01 08:51:27;;;;;;;12.25;3.78;;;;;;;18.58;100.00;99355.09;4957968;28;20244;-89
2023/08/01 08:53:54;;;;;;;7.47;2.78;;;;;;;18.60;100.00;99342.50;4978469;28;20316;-81
2023/08/01 08:56:22;;;;;;;38.10;9.15;;;;;;;18.75;100.00;99349.94;4973700;28;20271;-86
2023/08/01 08:58:49;;;;;;;4.85;2.00;;;;;;;18.84;100.00;99338.84;4965535;28;20244;-83
2023/08/01 09:01:18;;;;;;;34.33;7.90;;;;;;;19.21;100.00;99347.13;4963342;28;20237;-82
2023/08/01 09:03:45;;;;;;;9.82;3.45;;;;;;;19.55;100.00;99355.47;4973599;28;20250;-86
2023/08/01 09:06:15;;;;;;;31.55;7.80;;;;;;;19.65;100.00;99339.84;4965868;28;20279;-87
2023/08/01 09:09:15;;;;;;;5.45;2.13;;;;;;;19.95;100.00;99330.38;4978239;28;20240;-88
2023/08/01 09:11:50;;;;;;;8.35;3.10;;;;;;;19.98;100.00;99302.53;4899354;28;20319;-84
2023/08/01 09:14:19;;;;;;;27.02;7.75;;;;;;;20.05;100.00;99283.38;4937417;28;20248;-85
2023/08/01 09:16:54;;;;;;;8.98;3.17;;;;;;;20.16;100.00;99261.41;4965411;28;20255;-83
2023/08/01 09:19:23;;;;;;;34.35;8.02;;;;;;;20.44;100.00;99247.50;4960345;28;20247;-84
2023/08/01 09:21:51;;;;;;;7.28;2.72;;;;;;;20.81;100.00;99249.22;4973975;28;20267;-84
2023/08/01 09:24:20;;;;;;;51.55;13.18;;;;;;;21.08;100.00;99239.72;4936874;28;20292;-82
2023/08/01 09:26:48;;;;;;;9.85;3.78;;;;;;;21.13;100.00;99217.09;4952539;28;20267;-85
2023/08/01 09:29:20;;;;;;;21.38;6.45;;;;;;;20.88;100.00;99177.22;4962527;28;20236;-82
2023/08/01 09:31:46;;;;;;;5.53;2.17;;;;;;;20.80;100.00;99139.09;4974154;28;20239;-85
2023/08/01 09:34:21;;;;;;;53.50;14.48;;;;;;;21.20;100.00;99167.44;4964744;28;20324;-83
2023/08/01 09:36:48;;;;;;;10.15;4.00;;;;;;;21.29;100.00;99140.94;4964187;28;20227;-85
2023/08/01 09:39:17;;;;;;;42.17;10.32;;;;;;;22.02;100.00;99162.81;4951450;28;20756;-86
2023/08/01 09:41:44;;;;;;;7.00;3.00;;;;;;;22.09;100.00;99139.13;4971771;28;20236;-81
2023/08/01 09:44:12;;;;;;;24.95;7.45;;;;;;;21.56;100.00;99073.97;4969609;28;20242;-83
2023/08/01 09:46:39;;;;;;;4.47;1.90;;;;;;;21.97;100.00;99105.69;4975581;28;20228;-82
2023/08/01 09:49:08;;;;;;;34.53;9.73;;;;;;;22.31;100.00;99104.59;4969796;28;20228;-84
2023/08/01 09:51:45;;;;;;;7.35;2.97;;;;;;;22.30;100.00;99087.56;4966429;28;20239;-84
2023/08/01 09:54:12;;;;;;;24.95;7.22;;;;;;;22.28;100.00;99054.50;4960221;28;20235;-84
2023/08/01 09:56:40;;;;;;;4.35;2.00;;;;;;;22.14;100.00;99042.81;4982799;28;20227;-85
2023/08/01 09:59:07;;;;;;;26.58;6.85;;;;;;;21.78;100.00;98949.81;4942847;28;20255;-83
2023/08/01 10:01:35;;;;;;;5.15;2.42;;;;;;;21.85;100.00;98970.00;4979214;28;20239;-82
2023/08/01 10:04:03;;;;;;;6.20;2.63;;;;;;;21.70;100.00;98963.72;4956966;28;20227;-84
2023/08/01 10:06:33;;;;;;;7.70;3.25;;;;;;;21.37;100.00;98911.94;4984450;28;20247;-84
2023/08/01 10:09:00;;;;;;;6.20;2.88;;;;;;;22.16;100.00;98987.91;4982138;28;20243;-84
2023/08/01 10:11:30;;;;;;;6.05;2.92;;;;;;;22.14;100.00;98932.44;4968470;28;20662;-84
2023/08/01 10:13:57;;;;;;;6.07;2.67;;;;;;;21.86;100.00;98885.63;4979052;28;20236;-82
2023/08/01 10:16:24;;;;;;;10.77;4.22;;;;;;;22.10;100.00;98926.34;4949094;28;20243;-82
2023/08/01 10:18:51;;;;;;;5.95;2.63;;;;;;;22.63;100.00;98949.94;4984614;28;20256;-82
2023/08/01 10:21:18;;;;;;;17.27;5.53;;;;;;;22.22;100.00;98842.13;4958518;28;20240;-82
2023/08/01 10:23:46;;;;;;;7.00;3.00;;;;;;;22.35;100.00;98874.53;4974821;28;20235;-84
2023/08/01 10:26:13;;;;;;;29.27;9.23;;;;;;;22.29;100.00;98872.22;4983737;28;20234;-83
2023/08/01 10:28:48;;;;;;;6.00;2.53;;;;;;;22.92;100.00;98920.25;4954880;28;20315;-82
2023/08/01 10:31:17;;;;;;;17.75;5.50;;;;;;;22.39;100.00;98805.19;4975577;28;20306;-83
2023/08/01 10:33:47;;;;;;;4.15;2.13;;;;;;;22.23;100.00;98767.63;4973727;28;20241;-81
2023/08/01 10:36:21;;;;;;;33.78;8.80;;;;;;;21.96;100.00;98749.53;4964275;28;20236;-84
2023/08/01 10:38:53;;;;;;;4.90;2.00;;;;;;;22.28;100.00;98808.56;4968287;28;20231;-83
2023/08/01 10:41:27;;;;;;;40.40;9.13;;;;;;;21.90;100.00;98757.13;4969427;28;20253;-82
2023/08/01 10:44:08;;;;;;;3.65;1.73;;;;;;;22.17;100.00;98759.94;4982912;28;20261;-82
2023/08/01 10:46:48;;;;;;;7.20;3.10;;;;;;;22.53;100.00;98824.88;4961980;28;20239;-84
2023/08/01 10:49:15;;;;;;;30.80;9.93;;;;;;;22.33;100.00;98752.59;4967701;28;20244;-83
2023/08/01 10:51:43;;;;;;;3.92;1.92;;;;;;;21.81;100.00;98696.69;4966440;28;20224;-82
2023/08/01 10:54:23;;;;;;;14.23;4.72;;;;;;;21.74;100.00;98714.19;4970497;28;20248;-82
2023/08/01 10:56:52;;;;;;;7.90;3.47;;;;;;;21.91;100.00;98738.19;4971333;28;20235;-80
2023/08/01 10:59:19;;;;;;;38.45;10.30;;;;;;;22.11;100.00;98717.25;4978764;28;20230;-83
2023/08/01 11:01:49;;;;;;;12.13;5.20;;;;;;;22.51;100.00;98753.19;4968721;28;20242;-81
2023/08/01 11:04:21;;;;;;;30.15;7.82;;;;;;;22.25;100.00;98696.53;4967022;28;20237;-84
2023/08/01 11:06:50;;;;;;;6.28;2.45;;;;;;;22.08;100.00;98642.06;4955554;28;20273;-81
2023/08/01 11:09:19;;;;;;;49.85;14.15;;;;;;;22.59;100.00;98691.59;4963074;28;20307;-83
2023/08/01 11:11:52;;;;;;;6.20;2.63;;;;;;;22.87;100.00;98752.59;4970480;28;20319;-83
2023/08/01 11:14:23;;;;;;;65.05;16.65;;;;;;;22.49;100.00;98671.63;4977790;28;20231;-85
2023/08/01 11:16:50;;;;;;;6.30;2.45;;;;;;;23.04;100.00;98702.91;4970788;28;20228;-84
2023/08/01 11:19:19;;;;;;;27.35;8.00;;;;;;;23.56;100.00;98737.94;4966236;28;20300;-83
2023/08/01 11:21:46;;;;;;;5.40;2.40;;;;;;;23.07;100.00;98630.75;4970225;28;20228;-83
2023/08/01 11:24:13;;;;;;;27.83;8.38;;;;;;;22.60;100.00;98561.31;4962238;28;20258;-83